Time;durP1;ratioP1;P1;durP2;ratioP2;P2;SDS_P1;SDS_P2;PMS_P1;PMS_P2;Temp;Humidity;BMP_temperature;BMP_pressure;BME280_temperature;BME280_humidity;BME280_pressure;Samples;Min_cycle;Max_cycle;Signal;HPM_P1;HPM_P2
2021/03/11 00:01:54;;;;;;;;;;;;;;;;;;5027704;28;820;-59
2021/03/11 00:04:19;;;;;;;;;;;;;;;;;;5025874;28;1183;-58
2021/03/11 00:06:44;;;;;;;;;;;;;;;;;;5007805;28;867;-59
2021/03/11 00:09:10;;;;;;;;;;;;;;;;;;5005020;28;1898;-59
2021/03/11 00:11:35;;;;;;;;;;;;;;;;;;4988630;28;959;-59
2021/03/11 00:14:00;;;;;;;;;;;;;;;;;;4996385;28;1105;-59
2021/03/11 00:16:26;;;;;;;;;;;;;;;;;;5006746;28;812;-59
2021/03/11 00:18:51;;;;;;;;;;;;;;;;;;5007165;28;800;-59
2021/03/11 00:21:17;;;;;;;;;;;;;;;;;;5007384;28;831;-59
2021/03/11 00:23:42;;;;;;;;;;;;;;;;;;5008721;28;855;-59
2021/03/11 00:26:07;;;;;;;;;;;;;;;;;;5007803;28;872;-60
2021/03/11 00:28:33;;;;;;;;;;;;;;;;;;5007779;28;1930;-59
2021/03/11 00:30:59;;;;;;;;;;;;;;;;;;5007761;28;874;-59
2021/03/11 00:33:24;;;;;;;;;;;;;;;;;;5007701;28;812;-59
2021/03/11 00:35:50;;;;;;;;;;;;;;;;;;5007221;28;1160;-59
2021/03/11 00:38:15;;;;;;;;;;;;;;;;;;5007449;28;856;-59
2021/03/11 00:40:40;;;;;;;;;;;;;;;;;;5008403;28;868;-59
2021/03/11 00:43:06;;;;;;;;;;;;;;;;;;5007314;28;898;-59
2021/03/11 00:45:31;;;;;;;;;;;;;;;;;;5007191;28;836;-59
2021/03/11 00:47:56;;;;;;;;;;;;;;;;;;5004822;28;1973;-58
2021/03/11 00:50:23;;;;;;;;;;;;;;;;;;4992887;28;1202;-57
2021/03/11 00:52:48;;;;;;;;;;;;;;;;;;4991158;28;1194;-58
2021/03/11 00:55:14;;;;;;;;;;;;;;;;;;5026793;28;820;-59
2021/03/11 00:57:40;;;;;;;;;;;;;;;;;;5027632;28;879;-58
2021/03/11 01:00:06;;;;;;;;;;;;;;;;;;5021653;28;997;-57
2021/03/11 01:02:32;;;;;;;;;;;;;;;;;;5007161;28;918;-57
2021/03/11 01:04:57;;;;;;;;;;;;;;;;;;5008475;28;862;-57
2021/03/11 01:07:22;;;;;;;;;;;;;;;;;;5007293;28;1910;-58
2021/03/11 01:09:48;;;;;;;;;;;;;;;;;;5007198;28;884;-57
2021/03/11 01:12:14;;;;;;;;;;;;;;;;;;4999846;28;1010;-58
2021/03/11 01:14:40;;;;;;;;;;;;;;;;;;4987640;28;1013;-57
2021/03/11 01:17:06;;;;;;;;;;;;;;;;;;4986910;28;820;-57
2021/03/11 01:19:31;;;;;;;;;;;;;;;;;;4986892;28;887;-57
2021/03/11 01:21:56;;;;;;;;;;;;;;;;;;5002495;28;894;-58
2021/03/11 01:24:22;;;;;;;;;;;;;;;;;;5006351;28;881;-59
2021/03/11 01:26:47;;;;;;;;;;;;;;;;;;5007034;28;883;-59
2021/03/11 01:29:13;;;;;;;;;;;;;;;;;;5006856;28;1953;-59
2021/03/11 01:31:38;;;;;;;;;;;;;;;;;;5007623;28;808;-59
2021/03/11 01:34:04;;;;;;;;;;;;;;;;;;5006646;28;827;-58
2021/03/11 01:36:29;;;;;;;;;;;;;;;;;;5006236;28;1137;-58
2021/03/11 01:38:54;;;;;;;;;;;;;;;;;;5006960;28;812;-59
2021/03/11 01:41:21;;;;;;;;;;;;;;;;;;5006493;28;878;-58
2021/03/11 01:43:46;;;;;;;;;;;;;;;;;;5006356;28;856;-59
2021/03/11 01:46:12;;;;;;;;;;;;;;;;;;5006913;28;938;-58
2021/03/11 01:48:37;;;;;;;;;;;;;;;;;;5005988;28;1918;-58
2021/03/11 01:51:02;;;;;;;;;;;;;;;;;;5008606;28;1043;-59
2021/03/11 01:53:29;;;;;;;;;;;;;;;;;;5013434;28;992;-59
2021/03/11 01:55:54;;;;;;;;;;;;;;;;;;5025928;28;663;-57
2021/03/11 01:58:19;;;;;;;;;;;;;;;;;;5026041;28;874;-59
2021/03/11 02:00:45;;;;;;;;;;;;;;;;;;5026054;28;918;-59
2021/03/11 02:03:10;;;;;;;;;;;;;;;;;;5010036;28;1086;-59
2021/03/11 02:05:35;;;;;;;;;;;;;;;;;;5008538;28;950;-59
2021/03/11 02:08:01;;;;;;;;;;;;;;;;;;5005005;28;1930;-60
2021/03/11 02:10:26;;;;;;;;;;;;;;;;;;5025252;28;939;-60
2021/03/11 02:12:52;;;;;;;;;;;;;;;;;;5026168;28;899;-60
2021/03/11 02:15:26;;;;;;;;;;;;;;;;;;5025991;28;958;-59
2021/03/11 02:17:56;;;;;;;;;;;;;;;;;;5014614;28;1179;-59
2021/03/11 02:20:37;;;;;;;;;;;;;;;;;;5006326;28;896;-60
2021/03/11 02:23:21;;;;;;;;;;;;;;;;;;5005615;28;962;-60
2021/03/11 02:26:05;;;;;;;;;;;;;;;;;;5006259;28;863;-59
2021/03/11 02:28:49;;;;;;;;;;;;;;;;;;5006035;28;1989;-59
2021/03/11 02:31:14;;;;;;;;;;;;;;;;;;5006173;28;942;-61
2021/03/11 02:33:40;;;;;;;;;;;;;;;;;;5006700;28;879;-60
2021/03/11 02:36:05;;;;;;;;;;;;;;;;;;5006037;28;930;-59
2021/03/11 02:38:33;;;;;;;;;;;;;;;;;;5006117;28;820;-60
2021/03/11 02:41:00;;;;;;;;;;;;;;;;;;5008866;28;879;-59
2021/03/11 02:43:26;;;;;;;;;;;;;;;;;;5009036;28;836;-60
2021/03/11 02:45:52;;;;;;;;;;;;;;;;;;5009426;28;902;-60
2021/03/11 02:48:18;;;;;;;;;;;;;;;;;;5008409;28;1922;-59
2021/03/11 02:50:43;;;;;;;;;;;;;;;;;;5009622;28;891;-60
2021/03/11 02:53:10;;;;;;;;;;;;;;;;;;5013616;28;1088;-59
2021/03/11 02:55:36;;;;;;;;;;;;;;;;;;5028396;28;800;-59
2021/03/11 02:58:03;;;;;;;;;;;;;;;;;;5028935;28;1095;-60
2021/03/11 03:00:29;;;;;;;;;;;;;;;;;;5028584;28;875;-60
2021/03/11 03:02:55;;;;;;;;;;;;;;;;;;5028173;28;820;-59
2021/03/11 03:05:22;;;;;;;;;;;;;;;;;;5030007;28;823;-60
2021/03/11 03:07:49;;;;;;;;;;;;;;;;;;5029127;28;1981;-59
2021/03/11 03:10:28;;;;;;;;;;;;;;;;;;5028902;28;895;-60
2021/03/11 03:12:55;;;;;;;;;;;;;;;;;;5017416;28;2411;-59
2021/03/11 03:15:21;;;;;;;;;;;;;;;;;;5008509;28;843;-59
2021/03/11 03:17:47;;;;;;;;;;;;;;;;;;5005732;28;1278;-60
2021/03/11 03:20:13;;;;;;;;;;;;;;;;;;5010194;28;812;-59
2021/03/11 03:22:39;;;;;;;;;;;;;;;;;;5008759;28;804;-60
2021/03/11 03:25:08;;;;;;;;;;;;;;;;;;5009150;28;812;-60
2021/03/11 03:27:34;;;;;;;;;;;;;;;;;;5008722;28;1976;-60
2021/03/11 03:29:59;;;;;;;;;;;;;;;;;;5008602;28;876;-60
2021/03/11 03:32:24;;;;;;;;;;;;;;;;;;5008352;28;832;-60
2021/03/11 03:34:50;;;;;;;;;;;;;;;;;;5008328;28;820;-61
2021/03/11 03:37:15;;;;;;;;;;;;;;;;;;5008706;28;977;-60
2021/03/11 03:39:41;;;;;;;;;;;;;;;;;;4996876;28;891;-60
2021/03/11 03:42:07;;;;;;;;;;;;;;;;;;4989144;28;891;-60
2021/03/11 03:44:37;;;;;;;;;;;;;;;;;;4989254;28;788;-59
2021/03/11 03:47:04;;;;;;;;;;;;;;;;;;4989225;28;879;-59
2021/03/11 03:49:30;;;;;;;;;;;;;;;;;;5007949;28;1973;-59
2021/03/11 03:51:59;;;;;;;;;;;;;;;;;;4996838;28;1069;-60
2021/03/11 03:54:26;;;;;;;;;;;;;;;;;;5017959;28;1097;-60
2021/03/11 03:56:59;;;;;;;;;;;;;;;;;;5027961;28;890;-58
2021/03/11 03:59:26;;;;;;;;;;;;;;;;;;5027657;28;954;-59
2021/03/11 04:01:53;;;;;;;;;;;;;;;;;;5027584;28;647;-59
2021/03/11 04:04:20;;;;;;;;;;;;;;;;;;5027931;28;891;-59
2021/03/11 04:06:45;;;;;;;;;;;;;;;;;;5011078;28;2649;-59
2021/03/11 04:09:12;;;;;;;;;;;;;;;;;;5007843;28;1977;-58
2021/03/11 04:11:38;;;;;;;;;;;;;;;;;;5007892;28;876;-59
2021/03/11 04:14:03;;;;;;;;;;;;;;;;;;5008013;28;840;-60
2021/03/11 04:16:29;;;;;;;;;;;;;;;;;;5008190;28;824;-59
2021/03/11 04:18:56;;;;;;;;;;;;;;;;;;5005672;28;1425;-59
2021/03/11 04:21:22;;;;;;;;;;;;;;;;;;5007624;28;711;-59
2021/03/11 04:23:48;;;;;;;;;;;;;;;;;;5007317;28;966;-59
2021/03/11 04:26:14;;;;;;;;;;;;;;;;;;5007541;28;897;-59
2021/03/11 04:28:40;;;;;;;;;;;;;;;;;;5008401;28;1975;-60
2021/03/11 04:31:05;;;;;;;;;;;;;;;;;;5007273;28;828;-59
2021/03/11 04:33:31;;;;;;;;;;;;;;;;;;5007020;28;840;-59
2021/03/11 04:35:57;;;;;;;;;;;;;;;;;;5007294;28;847;-59
2021/03/11 04:38:24;;;;;;;;;;;;;;;;;;5007031;28;764;-60
2021/03/11 04:40:49;;;;;;;;;;;;;;;;;;5007251;28;804;-60
2021/03/11 04:43:15;;;;;;;;;;;;;;;;;;5007546;28;942;-58
2021/03/11 04:45:44;;;;;;;;;;;;;;;;;;5008281;28;962;-59
2021/03/11 04:48:11;;;;;;;;;;;;;;;;;;5006233;28;1975;-58
2021/03/11 04:50:38;;;;;;;;;;;;;;;;;;5009791;28;1018;-59
2021/03/11 04:53:03;;;;;;;;;;;;;;;;;;5027001;28;1104;-59
2021/03/11 04:55:29;;;;;;;;;;;;;;;;;;5027097;28;886;-58
2021/03/11 04:57:54;;;;;;;;;;;;;;;;;;5026953;28;844;-58
2021/03/11 05:00:20;;;;;;;;;;;;;;;;;;5026716;28;894;-58
2021/03/11 05:02:46;;;;;;;;;;;;;;;;;;5026374;28;839;-59
2021/03/11 05:05:12;;;;;;;;;;;;;;;;;;5027374;28;887;-58
2021/03/11 05:07:38;;;;;;;;;;;;;;;;;;5028061;28;1882;-58
2021/03/11 05:10:04;;;;;;;;;;;;;;;;;;5025965;28;926;-58
2021/03/11 05:12:29;;;;;;;;;;;;;;;;;;5026917;28;984;-57
2021/03/11 05:14:55;;;;;;;;;;;;;;;;;;5017961;28;1265;-58
2021/03/11 05:17:20;;;;;;;;;;;;;;;;;;5000755;28;1598;-58
2021/03/11 05:19:45;;;;;;;;;;;;;;;;;;5005102;28;1098;-58
2021/03/11 05:22:11;;;;;;;;;;;;;;;;;;5007257;28;882;-58
2021/03/11 05:24:36;;;;;;;;;;;;;;;;;;5006276;28;1230;-58
2021/03/11 05:27:01;;;;;;;;;;;;;;;;;;5006371;28;859;-58
2021/03/11 05:29:27;;;;;;;;;;;;;;;;;;5006418;28;1894;-58
2021/03/11 05:31:52;;;;;;;;;;;;;;;;;;5006524;28;827;-59
2021/03/11 05:34:18;;;;;;;;;;;;;;;;;;5005916;28;1135;-59
2021/03/11 05:36:43;;;;;;;;;;;;;;;;;;5006807;28;1615;-60
2021/03/11 05:39:08;;;;;;;;;;;;;;;;;;5007759;28;891;-60
2021/03/11 05:41:36;;;;;;;;;;;;;;;;;;5006171;28;978;-59
2021/03/11 05:44:01;;;;;;;;;;;;;;;;;;5006406;28;840;-59
2021/03/11 05:46:28;;;;;;;;;;;;;;;;;;5008759;28;1080;-59
2021/03/11 05:48:55;;;;;;;;;;;;;;;;;;5004103;28;1957;-59
2021/03/11 05:51:21;;;;;;;;;;;;;;;;;;5006030;28;985;-59
2021/03/11 05:53:46;;;;;;;;;;;;;;;;;;5015631;28;1095;-59
2021/03/11 05:56:11;;;;;;;;;;;;;;;;;;5027023;28;879;-59
2021/03/11 05:58:37;;;;;;;;;;;;;;;;;;5015772;28;1069;-60
2021/03/11 06:01:03;;;;;;;;;;;;;;;;;;5006138;28;824;-60
2021/03/11 06:03:32;;;;;;;;;;;;;;;;;;5004731;28;878;-60
2021/03/11 06:05:58;;;;;;;;;;;;;;;;;;5005232;28;886;-59
2021/03/11 06:08:25;;;;;;;;;;;;;;;;;;5010269;28;1973;-60
2021/03/11 06:10:54;;;;;;;;;;;;;;;;;;5026026;28;902;-59
2021/03/11 06:13:20;;;;;;;;;;;;;;;;;;5025420;28;934;-59
2021/03/11 06:15:46;;;;;;;;;;;;;;;;;;5027521;28;1148;-59
2021/03/11 06:18:12;;;;;;;;;;;;;;;;;;5029832;28;836;-60
2021/03/11 06:20:38;;;;;;;;;;;;;;;;;;5029678;28;863;-59
2021/03/11 06:23:03;;;;;;;;;;;;;;;;;;5027030;28;1431;-59
2021/03/11 06:25:28;;;;;;;;;;;;;;;;;;5018304;28;1158;-60
2021/03/11 06:27:54;;;;;;;;;;;;;;;;;;5013430;28;1984;-60
2021/03/11 06:30:30;;;;;;;;;;;;;;;;;;5009772;28;815;-59
2021/03/11 06:32:55;;;;;;;;;;;;;;;;;;5010889;28;1169;-59
2021/03/11 06:35:21;;;;;;;;;;;;;;;;;;5029705;28;823;-60
2021/03/11 06:37:48;;;;;;;;;;;;;;;;;;5028424;28;799;-59
2021/03/11 06:40:14;;;;;;;;;;;;;;;;;;5029975;28;919;-60
2021/03/11 06:42:39;;;;;;;;;;;;;;;;;;5029724;28;842;-60
2021/03/11 06:45:28;;;;;;;;;;;;;;;;;;5029230;28;958;-59
2021/03/11 06:48:13;;;;;;;;;;;;;;;;;;5020887;28;1921;-60
2021/03/11 06:50:39;;;;;;;;;;;;;;;;;;4989813;28;1267;-60
2021/03/11 06:53:04;;;;;;;;;;;;;;;;;;4993129;28;985;-59
2021/03/11 06:55:31;;;;;;;;;;;;;;;;;;5009404;28;798;-59
2021/03/11 06:58:14;;;;;;;;;;;;;;;;;;5009596;28;840;-60
2021/03/11 07:00:39;;;;;;;;;;;;;;;;;;5009662;28;1096;-59
2021/03/11 07:03:04;;;;;;;;;;;;;;;;;;5008362;28;898;-59
2021/03/11 07:05:31;;;;;;;;;;;;;;;;;;5020135;28;1204;-58
2021/03/11 07:08:07;;;;;;;;;;;;;;;;;;5007937;28;1898;-58
2021/03/11 07:10:33;;;;;;;;;;;;;;;;;;5022230;28;1104;-59
2021/03/11 07:12:59;;;;;;;;;;;;;;;;;;5022047;28;1237;-59
2021/03/11 07:15:29;;;;;;;;;;;;;;;;;;5008821;28;823;-59
2021/03/11 07:17:56;;;;;;;;;;;;;;;;;;5008522;28;910;-59
2021/03/11 07:20:25;;;;;;;;;;;;;;;;;;5008114;28;661;-59
2021/03/11 07:23:01;;;;;;;;;;;;;;;;;;5025101;28;1242;-59
2021/03/11 07:25:30;;;;;;;;;;;;;;;;;;5027748;28;925;-59
2021/03/11 07:27:56;;;;;;;;;;;;;;;;;;5027288;28;1893;-59
2021/03/11 07:30:22;;;;;;;;;;;;;;;;;;5025665;28;970;-59
2021/03/11 07:32:48;;;;;;;;;;;;;;;;;;5007874;28;832;-65
2021/03/11 07:35:20;;;;;;;;;;;;;;;;;;5008499;28;947;-66
2021/03/11 07:37:47;;;;;;;;;;;;;;;;;;5023979;28;865;-64
2021/03/11 07:40:13;;;;;;;;;;;;;;;;;;5009575;28;828;-63
2021/03/11 07:42:40;;;;;;;;;;;;;;;;;;5009580;28;820;-63
2021/03/11 07:45:06;;;;;;;;;;;;;;;;;;5008636;28;831;-64
2021/03/11 07:47:31;;;;;;;;;;;;;;;;;;5007506;28;1977;-63
2021/03/11 07:49:57;;;;;;;;;;;;;;;;;;5007267;28;827;-63
2021/03/11 07:52:23;;;;;;;;;;;;;;;;;;5008682;28;1466;-63
2021/03/11 07:54:49;;;;;;;;;;;;;;;;;;5025361;28;1427;-64
2021/03/11 07:57:14;;;;;;;;;;;;;;;;;;5028011;28;942;-68
2021/03/11 07:59:43;;;;;;;;;;;;;;;;;;4998434;28;1065;-63
2021/03/11 08:02:09;;;;;;;;;;;;;;;;;;5005304;28;1067;-62
2021/03/11 08:04:35;;;;;;;;;;;;;;;;;;5007962;28;848;-62
2021/03/11 08:07:19;;;;;;;;;;;;;;;;;;5006136;28;1022;-62
2021/03/11 08:09:46;;;;;;;;;;;;;;;;;;5008010;28;1890;-62
2021/03/11 08:12:23;;;;;;;;;;;;;;;;;;5008686;28;890;-62
2021/03/11 08:14:49;;;;;;;;;;;;;;;;;;5007872;28;907;-61
2021/03/11 08:17:40;;;;;;;;;;;;;;;;;;5021231;28;1284;-61
2021/03/11 08:20:07;;;;;;;;;;;;;;;;;;5007688;28;1349;-61
2021/03/11 08:23:01;;;;;;;;;;;;;;;;;;5007767;28;836;-62
2021/03/11 08:25:38;;;;;;;;;;;;;;;;;;5006415;28;827;-62
2021/03/11 08:28:07;;;;;;;;;;;;;;;;;;5006997;28;1941;-61
2021/03/11 08:30:38;;;;;;;;;;;;;;;;;;5007218;28;1244;-61
2021/03/11 08:33:04;;;;;;;;;;;;;;;;;;5007473;28;923;-61
2021/03/11 08:35:36;;;;;;;;;;;;;;;;;;5000573;28;1470;-62
2021/03/11 08:38:01;;;;;;;;;;;;;;;;;;5006143;28;1713;-62
2021/03/11 08:40:41;;;;;;;;;;;;;;;;;;5005652;28;1621;-62
2021/03/11 08:43:07;;;;;;;;;;;;;;;;;;5007586;28;886;-63
2021/03/11 08:45:36;;;;;;;;;;;;;;;;;;5007016;28;1771;-63
2021/03/11 08:48:16;;;;;;;;;;;;;;;;;;5006267;28;1907;-62
2021/03/11 08:50:43;;;;;;;;;;;;;;;;;;5008996;28;1085;-62
2021/03/11 08:53:09;;;;;;;;;;;;;;;;;;5026723;28;1758;-61
2021/03/11 08:55:34;;;;;;;;;;;;;;;;;;5019125;28;1763;-63
2021/03/11 08:58:00;;;;;;;;;;;;;;;;;;5007104;28;1918;-63
2021/03/11 09:00:45;;;;;;;;;;;;;;;;;;5004930;28;1637;-61
2021/03/11 09:03:29;;;;;;;;;;;;;;;;;;5007953;28;816;-62
2021/03/11 09:05:54;;;;;;;;;;;;;;;;;;5005891;28;890;-62
2021/03/11 09:08:20;;;;;;;;;;;;;;;;;;5006818;28;1981;-59
2021/03/11 09:10:45;;;;;;;;;;;;;;;;;;5006557;28;796;-60
2021/03/11 09:13:12;;;;;;;;;;;;;;;;;;5007483;28;1704;-61
2021/03/11 09:15:37;;;;;;;;;;;;;;;;;;5005537;28;860;-61
2021/03/11 09:18:03;;;;;;;;;;;;;;;;;;5004939;28;1358;-60
2021/03/11 09:20:28;;;;;;;;;;;;;;;;;;5005875;28;879;-61
2021/03/11 09:22:54;;;;;;;;;;;;;;;;;;5006679;28;875;-61
2021/03/11 09:25:21;;;;;;;;;;;;;;;;;;5006471;28;871;-61
2021/03/11 09:27:52;;;;;;;;;;;;;;;;;;5016578;28;1968;-62
2021/03/11 09:30:19;;;;;;;;;;;;;;;;;;5015228;28;1759;-61
2021/03/11 09:32:44;;;;;;;;;;;;;;;;;;5006026;28;844;-62
2021/03/11 09:35:10;;;;;;;;;;;;;;;;;;5007388;28;795;-61
2021/03/11 09:38:02;;;;;;;;;;;;;;;;;;5006117;28;800;-61
2021/03/11 09:40:28;;;;;;;;;;;;;;;;;;5005719;28;1693;-62
2021/03/11 09:43:04;;;;;;;;;;;;;;;;;;5002816;28;1763;-58
2021/03/11 09:45:37;;;;;;;;;;;;;;;;;;5003912;28;1089;-58
2021/03/11 09:48:13;;;;;;;;;;;;;;;;;;5008454;28;1890;-58
2021/03/11 09:50:49;;;;;;;;;;;;;;;;;;5007856;28;2331;-59
2021/03/11 09:53:15;;;;;;;;;;;;;;;;;;5013976;28;1269;-58
2021/03/11 09:55:41;;;;;;;;;;;;;;;;;;5030526;28;878;-58
2021/03/11 09:58:12;;;;;;;;;;;;;;;;;;5029920;28;863;-58
2021/03/11 10:00:38;;;;;;;;;;;;;;;;;;5029854;28;988;-58
2021/03/11 10:03:03;;;;;;;;;;;;;;;;;;5029874;28;816;-59
2021/03/11 10:05:31;;;;;;;;;;;;;;;;;;5009561;28;1645;-57
2021/03/11 10:07:57;;;;;;;;;;;;;;;;;;5009630;28;1903;-58
2021/03/11 10:10:23;;;;;;;;;;;;;;;;;;5010046;28;808;-58
2021/03/11 10:12:48;;;;;;;;;;;;;;;;;;5009979;28;824;-58
2021/03/11 10:15:15;;;;;;;;;;;;;;;;;;5010217;28;871;-59
2021/03/11 10:17:40;;;;;;;;;;;;;;;;;;5011183;28;1378;-59
2021/03/11 10:20:18;;;;;;;;;;;;;;;;;;4997302;28;1439;-59
2021/03/11 10:22:44;;;;;;;;;;;;;;;;;;4991263;28;867;-60
2021/03/11 10:25:14;;;;;;;;;;;;;;;;;;4990149;28;1030;-59
2021/03/11 10:27:43;;;;;;;;;;;;;;;;;;4991272;28;1894;-59
2021/03/11 10:30:08;;;;;;;;;;;;;;;;;;5006562;28;1839;-59
2021/03/11 10:32:35;;;;;;;;;;;;;;;;;;5015570;28;1112;-58
2021/03/11 10:35:01;;;;;;;;;;;;;;;;;;5028472;28;1161;-59
2021/03/11 10:37:27;;;;;;;;;;;;;;;;;;5029054;28;886;-58
2021/03/11 10:39:54;;;;;;;;;;;;;;;;;;5020326;28;1231;-59
2021/03/11 10:42:19;;;;;;;;;;;;;;;;;;5015106;28;1160;-59
2021/03/11 10:45:05;;;;;;;;;;;;;;;;;;5009520;28;839;-59
2021/03/11 10:47:30;;;;;;;;;;;;;;;;;;5011774;28;1459;-59
2021/03/11 10:49:56;;;;;;;;;;;;;;;;;;5019058;28;1890;-59
2021/03/11 10:52:22;;;;;;;;;;;;;;;;;;5009221;28;855;-58
2021/03/11 10:54:47;;;;;;;;;;;;;;;;;;5027583;28;1104;-59
2021/03/11 10:57:14;;;;;;;;;;;;;;;;;;5030081;28;910;-58
2021/03/11 10:59:53;;;;;;;;;;;;;;;;;;5028661;28;1049;-59
2021/03/11 11:02:19;;;;;;;;;;;;;;;;;;5008392;28;1136;-58
2021/03/11 11:04:44;;;;;;;;;;;;;;;;;;5009477;28;1848;-58
2021/03/11 11:07:10;;;;;;;;;;;;;;;;;;5009335;28;843;-59
2021/03/11 11:09:36;;;;;;;;;;;;;;;;;;5009106;28;1906;-59
2021/03/11 11:12:06;;;;;;;;;;;;;;;;;;5009092;28;820;-59
2021/03/11 11:14:32;;;;;;;;;;;;;;;;;;5002489;28;1384;-59
2021/03/11 11:16:57;;;;;;;;;;;;;;;;;;5015931;28;1223;-58
2021/03/11 11:19:22;;;;;;;;;;;;;;;;;;5021465;28;1167;-59
2021/03/11 11:21:48;;;;;;;;;;;;;;;;;;5008073;28;806;-58
2021/03/11 11:24:13;;;;;;;;;;;;;;;;;;5009273;28;848;-58
2021/03/11 11:26:39;;;;;;;;;;;;;;;;;;5008492;28;1346;-59
2021/03/11 11:29:05;;;;;;;;;;;;;;;;;;5008445;28;1967;-58
2021/03/11 11:31:34;;;;;;;;;;;;;;;;;;5007760;28;1274;-59
2021/03/11 11:33:59;;;;;;;;;;;;;;;;;;5008080;28;995;-59
2021/03/11 11:36:25;;;;;;;;;;;;;;;;;;5007997;28;918;-58
2021/03/11 11:38:51;;;;;;;;;;;;;;;;;;5008028;28;859;-59
2021/03/11 11:41:17;;;;;;;;;;;;;;;;;;5008147;28;855;-59
2021/03/11 11:43:42;;;;;;;;;;;;;;;;;;5009323;28;830;-59
2021/03/11 11:46:08;;;;;;;;;;;;;;;;;;5007956;28;1219;-59
2021/03/11 11:48:33;;;;;;;;;;;;;;;;;;5015011;28;1965;-59
2021/03/11 11:50:59;;;;;;;;;;;;;;;;;;5008214;28;935;-59
2021/03/11 11:53:27;;;;;;;;;;;;;;;;;;5014784;28;1146;-59
2021/03/11 11:55:52;;;;;;;;;;;;;;;;;;5027233;28;1218;-59
2021/03/11 11:58:18;;;;;;;;;;;;;;;;;;5024510;28;1207;-60
2021/03/11 12:00:44;;;;;;;;;;;;;;;;;;5028199;28;879;-59
2021/03/11 12:03:10;;;;;;;;;;;;;;;;;;5028231;28;1938;-59
2021/03/11 12:05:35;;;;;;;;;;;;;;;;;;5008342;28;919;-58
2021/03/11 12:08:01;;;;;;;;;;;;;;;;;;5008839;28;1906;-57
2021/03/11 12:10:27;;;;;;;;;;;;;;;;;;5012456;28;1146;-58
2021/03/11 12:12:52;;;;;;;;;;;;;;;;;;4998662;28;1230;-57
2021/03/11 12:15:17;;;;;;;;;;;;;;;;;;4995328;28;1297;-58
2021/03/11 12:17:43;;;;;;;;;;;;;;;;;;4998409;28;1289;-58
2021/03/11 12:20:08;;;;;;;;;;;;;;;;;;4997800;28;1238;-58
2021/03/11 12:22:34;;;;;;;;;;;;;;;;;;5017837;28;1272;-58
2021/03/11 12:24:59;;;;;;;;;;;;;;;;;;4996926;28;1340;-57
2021/03/11 12:27:25;;;;;;;;;;;;;;;;;;5023760;28;1226;-58
2021/03/11 12:29:51;;;;;;;;;;;;;;;;;;5020759;28;1894;-58
2021/03/11 12:32:16;;;;;;;;;;;;;;;;;;5008460;28;1343;-58
2021/03/11 12:34:42;;;;;;;;;;;;;;;;;;5008214;28;831;-58
2021/03/11 12:37:07;;;;;;;;;;;;;;;;;;5007499;28;1227;-57
2021/03/11 12:39:32;;;;;;;;;;;;;;;;;;5017466;28;1136;-58
2021/03/11 12:41:58;;;;;;;;;;;;;;;;;;5016188;28;1152;-58
2021/03/11 12:44:23;;;;;;;;;;;;;;;;;;5023338;28;1226;-57
2021/03/11 12:46:48;;;;;;;;;;;;;;;;;;5026873;28;816;-57
2021/03/11 12:49:14;;;;;;;;;;;;;;;;;;5027265;28;1965;-55
2021/03/11 12:51:39;;;;;;;;;;;;;;;;;;5026431;28;694;-58
2021/03/11 12:54:05;;;;;;;;;;;;;;;;;;5026382;28;1103;-58
2021/03/11 12:56:30;;;;;;;;;;;;;;;;;;5021386;28;1402;-57
2021/03/11 12:58:56;;;;;;;;;;;;;;;;;;5001709;28;1304;-56
2021/03/11 13:01:21;;;;;;;;;;;;;;;;;;5009147;28;1170;-56
2021/03/11 13:03:47;;;;;;;;;;;;;;;;;;5006637;28;1466;-58
2021/03/11 13:06:12;;;;;;;;;;;;;;;;;;5006546;28;1276;-56
2021/03/11 13:08:38;;;;;;;;;;;;;;;;;;5004068;28;1902;-57
2021/03/11 13:11:03;;;;;;;;;;;;;;;;;;5004303;28;1165;-56
2021/03/11 13:13:28;;;;;;;;;;;;;;;;;;5011453;28;1150;-56
2021/03/11 13:15:54;;;;;;;;;;;;;;;;;;5004331;28;1205;-56
2021/03/11 13:18:19;;;;;;;;;;;;;;;;;;5000331;28;1281;-56
2021/03/11 13:20:45;;;;;;;;;;;;;;;;;;4990886;28;1178;-59
2021/03/11 13:23:11;;;;;;;;;;;;;;;;;;5006896;28;803;-59
2021/03/11 13:25:37;;;;;;;;;;;;;;;;;;5006221;28;812;-60
2021/03/11 13:28:03;;;;;;;;;;;;;;;;;;5002401;28;2044;-60
2021/03/11 13:30:29;;;;;;;;;;;;;;;;;;5002974;28;879;-59
2021/03/11 13:32:54;;;;;;;;;;;;;;;;;;4999513;28;1116;-60
2021/03/11 13:35:20;;;;;;;;;;;;;;;;;;5008076;28;1163;-60
2021/03/11 13:37:45;;;;;;;;;;;;;;;;;;5015932;28;1172;-60
2021/03/11 13:40:11;;;;;;;;;;;;;;;;;;5024523;28;841;-60
2021/03/11 13:42:37;;;;;;;;;;;;;;;;;;5024966;28;788;-60
2021/03/11 13:45:03;;;;;;;;;;;;;;;;;;5026036;28;855;-60
2021/03/11 13:47:29;;;;;;;;;;;;;;;;;;5025863;28;840;-60
2021/03/11 13:49:54;;;;;;;;;;;;;;;;;;5026080;28;1995;-60
2021/03/11 13:52:19;;;;;;;;;;;;;;;;;;5026316;28;922;-61
2021/03/11 13:54:45;;;;;;;;;;;;;;;;;;5023223;28;1158;-61
2021/03/11 13:57:10;;;;;;;;;;;;;;;;;;5026645;28;831;-60
2021/03/11 13:59:36;;;;;;;;;;;;;;;;;;5009467;28;1432;-60
2021/03/11 14:02:01;;;;;;;;;;;;;;;;;;4998052;28;1053;-61
2021/03/11 14:04:26;;;;;;;;;;;;;;;;;;5003495;28;1451;-61
2021/03/11 14:06:52;;;;;;;;;;;;;;;;;;5002690;28;1168;-60
2021/03/11 14:09:17;;;;;;;;;;;;;;;;;;5006841;28;1910;-61
2021/03/11 14:11:45;;;;;;;;;;;;;;;;;;5007088;28;839;-60
2021/03/11 14:14:11;;;;;;;;;;;;;;;;;;5007157;28;843;-60
2021/03/11 14:16:36;;;;;;;;;;;;;;;;;;4998106;28;1148;-61
2021/03/11 14:19:02;;;;;;;;;;;;;;;;;;4986717;28;903;-60
2021/03/11 14:21:27;;;;;;;;;;;;;;;;;;4985604;28;931;-60
2021/03/11 14:23:52;;;;;;;;;;;;;;;;;;4986122;28;887;-60
2021/03/11 14:26:18;;;;;;;;;;;;;;;;;;4986407;28;843;-60
2021/03/11 14:28:43;;;;;;;;;;;;;;;;;;4987202;28;1965;-60
2021/03/11 14:31:10;;;;;;;;;;;;;;;;;;4986280;28;1174;-60
2021/03/11 14:33:36;;;;;;;;;;;;;;;;;;4986143;28;923;-59
2021/03/11 14:36:01;;;;;;;;;;;;;;;;;;4998298;28;919;-61
2021/03/11 14:38:27;;;;;;;;;;;;;;;;;;5009537;28;856;-60
2021/03/11 14:40:52;;;;;;;;;;;;;;;;;;5006191;28;1475;-62
2021/03/11 14:43:18;;;;;;;;;;;;;;;;;;5010155;28;989;-60
2021/03/11 14:45:43;;;;;;;;;;;;;;;;;;5009397;28;907;-60
2021/03/11 14:48:09;;;;;;;;;;;;;;;;;;5008190;28;1894;-59
2021/03/11 14:50:35;;;;;;;;;;;;;;;;;;5005929;28;1178;-60
2021/03/11 14:53:00;;;;;;;;;;;;;;;;;;5007189;28;2526;-60
2021/03/11 14:55:27;;;;;;;;;;;;;;;;;;5008762;28;815;-60
2021/03/11 14:57:53;;;;;;;;;;;;;;;;;;5011692;28;1271;-61
2021/03/11 15:00:18;;;;;;;;;;;;;;;;;;5009072;28;878;-61
2021/03/11 15:02:44;;;;;;;;;;;;;;;;;;5008905;28;940;-60
2021/03/11 15:05:10;;;;;;;;;;;;;;;;;;5001042;28;1540;-60
2021/03/11 15:07:35;;;;;;;;;;;;;;;;;;5007953;28;1516;-60
2021/03/11 15:10:03;;;;;;;;;;;;;;;;;;5011343;28;1972;-59
2021/03/11 15:12:28;;;;;;;;;;;;;;;;;;5008527;28;852;-61
2021/03/11 15:14:54;;;;;;;;;;;;;;;;;;5008869;28;820;-60
2021/03/11 15:17:19;;;;;;;;;;;;;;;;;;5008884;28;903;-59
2021/03/11 15:19:44;;;;;;;;;;;;;;;;;;5008984;28;846;-60
2021/03/11 15:22:10;;;;;;;;;;;;;;;;;;5009702;28;812;-61
2021/03/11 15:24:35;;;;;;;;;;;;;;;;;;5008207;28;871;-60
2021/03/11 15:27:06;;;;;;;;;;;;;;;;;;5007595;28;907;-60
2021/03/11 15:29:31;;;;;;;;;;;;;;;;;;5008720;28;1961;-60
2021/03/11 15:31:57;;;;;;;;;;;;;;;;;;5008961;28;820;-60
2021/03/11 15:34:22;;;;;;;;;;;;;;;;;;5005556;28;1279;-60
2021/03/11 15:36:47;;;;;;;;;;;;;;;;;;5007624;28;2445;-61
2021/03/11 15:39:13;;;;;;;;;;;;;;;;;;5008632;28;816;-60
2021/03/11 15:41:38;;;;;;;;;;;;;;;;;;5008572;28;867;-60
2021/03/11 15:44:04;;;;;;;;;;;;;;;;;;5008817;28;938;-60
2021/03/11 15:46:29;;;;;;;;;;;;;;;;;;5008882;28;859;-60
2021/03/11 15:48:54;;;;;;;;;;;;;;;;;;5007632;28;1902;-60
2021/03/11 15:51:20;;;;;;;;;;;;;;;;;;5008305;28;824;-60
2021/03/11 15:53:45;;;;;;;;;;;;;;;;;;5017160;28;1159;-61
2021/03/11 15:56:11;;;;;;;;;;;;;;;;;;5028720;28;851;-60
2021/03/11 15:58:36;;;;;;;;;;;;;;;;;;5024344;28;983;-60
2021/03/11 16:01:02;;;;;;;;;;;;;;;;;;5028193;28;839;-60
2021/03/11 16:03:27;;;;;;;;;;;;;;;;;;5028353;28;807;-60
2021/03/11 16:05:53;;;;;;;;;;;;;;;;;;5014678;28;1828;-60
2021/03/11 16:08:18;;;;;;;;;;;;;;;;;;5007174;28;1980;-61
2021/03/11 16:10:45;;;;;;;;;;;;;;;;;;5008170;28;933;-61
2021/03/11 16:13:11;;;;;;;;;;;;;;;;;;5008878;28;840;-60
2021/03/11 16:15:41;;;;;;;;;;;;;;;;;;5007690;28;1110;-60
2021/03/11 16:18:10;;;;;;;;;;;;;;;;;;5006396;28;911;-60
2021/03/11 16:20:35;;;;;;;;;;;;;;;;;;5008311;28;914;-61
2021/03/11 16:23:01;;;;;;;;;;;;;;;;;;5007876;28;883;-61
2021/03/11 16:25:26;;;;;;;;;;;;;;;;;;5007846;28;832;-61
2021/03/11 16:27:52;;;;;;;;;;;;;;;;;;5007207;28;1911;-60
2021/03/11 16:30:18;;;;;;;;;;;;;;;;;;4993423;28;1412;-60
2021/03/11 16:32:44;;;;;;;;;;;;;;;;;;4989355;28;955;-60
2021/03/11 16:35:10;;;;;;;;;;;;;;;;;;4988466;28;1178;-60
2021/03/11 16:37:36;;;;;;;;;;;;;;;;;;4988085;28;967;-60
2021/03/11 16:40:03;;;;;;;;;;;;;;;;;;4988045;28;876;-60
2021/03/11 16:42:28;;;;;;;;;;;;;;;;;;4987808;28;926;-60
2021/03/11 16:44:55;;;;;;;;;;;;;;;;;;4987854;28;981;-60
2021/03/11 16:47:21;;;;;;;;;;;;;;;;;;4987806;28;875;-60
2021/03/11 16:49:47;;;;;;;;;;;;;;;;;;4987712;28;1965;-60
2021/03/11 16:52:12;;;;;;;;;;;;;;;;;;4988565;28;911;-60
2021/03/11 16:54:38;;;;;;;;;;;;;;;;;;5017340;28;1522;-60
2021/03/11 16:57:03;;;;;;;;;;;;;;;;;;5027591;28;914;-60
2021/03/11 16:59:28;;;;;;;;;;;;;;;;;;5026934;28;949;-61
2021/03/11 17:01:54;;;;;;;;;;;;;;;;;;5024169;28;1037;-60
2021/03/11 17:04:20;;;;;;;;;;;;;;;;;;4987479;28;874;-60
2021/03/11 17:06:45;;;;;;;;;;;;;;;;;;4987887;28;895;-61
2021/03/11 17:09:10;;;;;;;;;;;;;;;;;;4988362;28;1903;-61
2021/03/11 17:11:36;;;;;;;;;;;;;;;;;;5003966;28;1516;-60